createdAt,value
2018-06-04T00:00:00.713Z,99.90
2018-06-04T00:10:07.372Z,99.90
2018-06-04T00:15:10.827Z,99.90
2018-06-04T00:20:15.203Z,99.90
2018-06-04T00:25:20.596Z,99.90
2018-06-04T00:30:24.007Z,99.90
2018-06-04T00:35:27.492Z,99.90
2018-06-04T00:40:30.890Z,99.90
2018-06-04T00:45:34.324Z,99.90
2018-06-04T00:50:37.861Z,99.90
2018-06-04T00:55:53.436Z,99.90
2018-06-04T01:00:57.362Z,99.90
2018-06-04T01:06:00.752Z,99.90
2018-06-04T01:11:04.235Z,99.90
2018-06-04T01:16:07.764Z,99.90
2018-06-04T01:21:11.230Z,99.90
2018-06-04T01:26:14.618Z,99.90
2018-06-04T01:31:21.246Z,99.90
2018-06-04T01:36:24.661Z,99.90
2018-06-04T01:41:27.994Z,99.90
2018-06-04T01:46:31.435Z,99.90
2018-06-04T01:51:34.827Z,99.90
2018-06-04T01:56:38.298Z,99.90
2018-06-04T02:01:42.855Z,99.90
2018-06-04T02:06:46.228Z,99.90
2018-06-04T02:11:49.675Z,99.90
2018-06-04T02:16:54.178Z,99.90
2018-06-04T02:21:58.765Z,99.90
2018-06-04T02:27:02.258Z,99.90
2018-06-04T02:32:05.677Z,99.90
2018-06-04T02:37:09.079Z,99.90
2018-06-04T02:42:12.452Z,99.90
2018-06-04T02:47:15.845Z,99.90
2018-06-04T02:52:20.034Z,99.90
2018-06-04T02:57:23.418Z,99.90
2018-06-04T03:02:26.813Z,99.90
2018-06-04T03:07:30.300Z,99.90
2018-06-04T03:12:33.732Z,99.90
2018-06-04T03:17:37.111Z,99.90
2018-06-04T03:22:41.199Z,99.90
2018-06-04T03:27:44.641Z,99.90
2018-06-04T03:32:48.934Z,99.90
2018-06-04T03:37:52.526Z,99.90
2018-06-04T03:42:55.886Z,99.90
2018-06-04T03:47:59.322Z,99.90
2018-06-04T03:53:02.685Z,99.90
2018-06-04T03:58:06.682Z,99.90
2018-06-04T04:03:10.097Z,99.90
2018-06-04T04:08:13.468Z,99.90
2018-06-04T04:13:16.921Z,99.90
2018-06-04T04:18:20.393Z,99.90
2018-06-04T04:23:23.773Z,99.90
2018-06-04T04:28:27.244Z,99.90
2018-06-04T04:33:30.739Z,99.90
2018-06-04T04:38:34.239Z,99.90
2018-06-04T04:43:37.772Z,99.90
2018-06-04T04:48:42.289Z,99.90
2018-06-04T04:53:45.778Z,99.90
2018-06-04T04:58:49.219Z,99.90
2018-06-04T05:03:52.677Z,99.90
2018-06-04T05:08:56.058Z,99.90
2018-06-04T05:13:59.504Z,99.90
2018-06-04T05:19:02.968Z,99.90
2018-06-04T05:24:07.460Z,99.90
2018-06-04T05:29:10.892Z,99.90
2018-06-04T05:34:14.367Z,99.90
2018-06-04T05:39:17.892Z,99.90
2018-06-04T05:44:22.278Z,99.90
2018-06-04T05:49:26.184Z,99.90
2018-06-04T05:54:29.667Z,99.90
2018-06-04T05:59:33.353Z,99.90
2018-06-04T06:04:36.745Z,99.90
2018-06-04T06:09:40.173Z,99.90
2018-06-04T06:14:43.675Z,99.90
2018-06-04T06:19:47.149Z,99.90
2018-06-04T06:24:50.551Z,99.90
2018-06-04T06:29:54.021Z,99.90
2018-06-04T06:34:57.410Z,99.90
2018-06-04T06:40:00.826Z,99.90
2018-06-04T06:45:04.346Z,99.90
2018-06-04T06:50:10.893Z,99.90
2018-06-04T06:55:14.594Z,99.90
2018-06-04T07:00:19.096Z,99.90
2018-06-04T07:05:22.637Z,99.90
2018-06-04T07:10:26.228Z,99.90
2018-06-04T07:15:30.698Z,99.90
2018-06-04T07:20:34.109Z,99.90
2018-06-04T07:25:37.465Z,99.90
2018-06-04T07:30:40.903Z,99.90
2018-06-04T07:35:44.326Z,99.90
2018-06-04T07:40:47.702Z,99.90
2018-06-04T07:45:51.141Z,99.90
2018-06-04T07:50:54.540Z,99.90
2018-06-04T07:55:57.956Z,99.90
2018-06-04T08:01:02.080Z,99.90
2018-06-04T08:06:06.544Z,99.90
2018-06-04T08:11:12.575Z,99.90
2018-06-04T08:16:17.975Z,99.90
2018-06-04T08:21:21.430Z,99.90
2018-06-04T08:26:24.892Z,99.90
2018-06-04T08:31:28.361Z,99.90
2018-06-04T08:36:31.814Z,99.90
2018-06-04T08:41:35.216Z,99.90
2018-06-04T08:46:38.715Z,99.90
2018-06-04T08:51:42.163Z,99.90
2018-06-04T08:56:45.568Z,99.90
2018-06-04T09:01:48.954Z,99.90
2018-06-04T09:06:52.339Z,99.90
2018-06-04T09:11:55.714Z,99.90
2018-06-04T09:16:59.140Z,99.90
2018-06-04T09:22:02.614Z,99.90
2018-06-04T09:27:05.991Z,99.90
2018-06-04T09:32:09.355Z,99.90
2018-06-04T09:37:12.871Z,99.90
2018-06-04T09:42:16.282Z,99.50
2018-06-04T09:47:19.775Z,99.20
2018-06-04T09:52:23.242Z,98.70
2018-06-04T09:57:26.589Z,96.70
2018-06-04T10:02:29.979Z,97.10
2018-06-04T10:07:33.434Z,96.00
2018-06-04T10:12:36.759Z,96.30
2018-06-04T10:17:43.229Z,94.90
2018-06-04T10:22:46.756Z,93.10
2018-06-04T10:27:50.146Z,91.30
2018-06-04T10:32:54.549Z,90.00
2018-06-04T10:37:57.977Z,88.20
2018-06-04T10:43:02.419Z,81.70
2018-06-04T10:48:06.006Z,78.40
2018-06-04T10:53:09.410Z,79.90
2018-06-04T10:58:12.816Z,76.90
2018-06-04T11:03:16.187Z,73.40
2018-06-04T11:08:19.625Z,74.70
2018-06-04T11:13:23.111Z,75.20
2018-06-04T11:18:26.473Z,73.40
2018-06-04T11:23:29.940Z,73.30
2018-06-04T11:28:33.384Z,72.70
2018-06-04T11:33:36.863Z,71.50
2018-06-04T11:38:40.265Z,71.20
2018-06-04T11:43:43.622Z,72.10
2018-06-04T11:48:47.018Z,69.00
2018-06-04T11:53:50.408Z,66.10
2018-06-04T11:58:57.611Z,63.90
2018-06-04T12:04:01.068Z,61.30
2018-06-04T12:09:07.059Z,60.00
2018-06-04T12:14:10.466Z,58.80
2018-06-04T12:19:13.876Z,57.90
2018-06-04T12:24:17.270Z,59.40
2018-06-04T12:29:20.933Z,57.70
2018-06-04T12:34:24.590Z,56.90
2018-06-04T12:39:28.077Z,57.40
2018-06-04T12:44:31.481Z,56.10
2018-06-04T12:49:34.819Z,55.90
2018-06-04T12:54:38.293Z,56.20
2018-06-04T12:59:41.889Z,55.40
2018-06-04T13:04:45.365Z,56.70
2018-06-04T13:09:48.696Z,57.50
2018-06-04T13:14:52.198Z,58.00
2018-06-04T13:19:55.633Z,56.40
2018-06-04T13:24:59.033Z,57.30
2018-06-04T13:30:02.399Z,55.80
2018-06-04T13:35:05.970Z,55.10
2018-06-04T13:40:09.506Z,54.80
2018-06-04T13:45:14.430Z,54.10
2018-06-04T13:50:20.196Z,54.20
2018-06-04T13:55:25.966Z,54.00
2018-06-04T14:00:29.454Z,54.00
2018-06-04T14:05:33.848Z,53.50
2018-06-04T14:10:40.818Z,53.50
2018-06-04T14:15:44.235Z,54.20
2018-06-04T14:20:47.632Z,53.50
2018-06-04T14:25:51.312Z,52.70
2018-06-04T14:30:54.823Z,54.60
2018-06-04T14:35:58.225Z,52.60
2018-06-04T14:41:01.639Z,52.50
2018-06-04T14:46:05.052Z,53.20
2018-06-04T14:51:09.465Z,53.30
2018-06-04T14:56:12.966Z,52.70
2018-06-04T15:01:16.306Z,51.10
2018-06-04T15:06:19.678Z,51.10
2018-06-04T15:11:23.150Z,52.00
2018-06-04T15:16:26.615Z,51.10
2018-06-04T15:21:30.040Z,51.90
2018-06-04T15:26:33.403Z,51.40
2018-06-04T15:31:40.556Z,51.40
2018-06-04T15:36:43.943Z,51.00
2018-06-04T15:41:47.417Z,51.30
2018-06-04T15:46:50.813Z,50.90
2018-06-04T15:51:54.322Z,51.50
2018-06-04T15:56:57.723Z,51.60
2018-06-04T16:02:01.224Z,52.70
2018-06-04T16:07:04.587Z,53.30
2018-06-04T16:12:08.659Z,54.60
2018-06-04T16:17:12.052Z,54.30
2018-06-04T16:22:15.558Z,54.10
2018-06-04T16:27:19.061Z,55.00
2018-06-04T16:32:22.585Z,55.40
2018-06-04T16:37:26.036Z,55.70
2018-06-04T16:42:29.459Z,56.40
2018-06-04T16:47:33.894Z,56.70
2018-06-04T16:57:40.376Z,56.90
2018-06-04T17:02:43.744Z,56.50
2018-06-04T17:07:47.160Z,55.90
2018-06-04T17:12:50.559Z,54.90
2018-06-04T17:17:54.095Z,54.40
2018-06-04T17:22:57.509Z,54.40
2018-06-04T17:28:00.904Z,53.70
2018-06-04T17:33:04.334Z,53.60
2018-06-04T17:38:07.817Z,53.00
2018-06-04T17:43:11.281Z,51.80
2018-06-04T17:48:14.790Z,52.10
2018-06-04T17:53:18.375Z,51.50
2018-06-04T17:58:21.876Z,51.70
2018-06-04T18:03:26.175Z,52.00
2018-06-04T18:08:29.704Z,53.30
2018-06-04T18:13:33.178Z,53.30
2018-06-04T18:18:36.751Z,54.00
2018-06-04T18:23:40.390Z,55.70
2018-06-04T18:28:43.932Z,57.20
2018-06-04T18:33:47.394Z,58.90
2018-06-04T18:38:52.957Z,61.20
2018-06-04T18:43:56.388Z,63.40
2018-06-04T18:48:59.809Z,65.30
2018-06-04T18:54:03.257Z,67.60
2018-06-04T18:59:06.661Z,69.40
2018-06-04T19:09:13.258Z,72.00
2018-06-04T19:14:16.730Z,74.00
2018-06-04T19:19:20.652Z,75.00
2018-06-04T19:24:24.150Z,75.60
2018-06-04T19:29:27.802Z,76.90
2018-06-04T19:34:31.212Z,77.50
2018-06-04T19:39:34.700Z,78.90
2018-06-04T19:44:38.225Z,79.60
2018-06-04T19:49:41.732Z,80.50
2018-06-04T19:54:45.296Z,81.50
2018-06-04T19:59:49.120Z,82.40
2018-06-04T20:04:53.761Z,82.80
2018-06-04T20:09:57.508Z,83.50
2018-06-04T20:15:01.624Z,84.20
2018-06-04T20:20:09.329Z,84.20
2018-06-04T20:25:12.880Z,84.90
2018-06-04T20:30:16.494Z,86.00
2018-06-04T20:35:20.648Z,86.70
2018-06-04T20:40:24.157Z,87.80
2018-06-04T20:45:28.583Z,88.50
2018-06-04T20:50:32.055Z,89.60
2018-06-04T20:55:35.911Z,89.80
2018-06-04T21:00:39.465Z,90.10
2018-06-04T21:05:43.236Z,90.20
2018-06-04T21:10:47.568Z,90.50
2018-06-04T21:15:51.275Z,91.10
2018-06-04T21:20:55.102Z,91.50
2018-06-04T21:25:58.631Z,92.10
2018-06-04T21:31:03.052Z,92.50
2018-06-04T21:36:06.542Z,93.00
2018-06-04T21:41:11.011Z,93.80
2018-06-04T21:46:17.098Z,94.70
2018-06-04T21:51:21.090Z,95.40
2018-06-04T21:56:24.668Z,96.30
2018-06-04T22:06:31.502Z,98.40
2018-06-04T22:11:34.996Z,99.40
2018-06-04T22:16:38.363Z,99.90
2018-06-04T22:21:41.793Z,99.90
2018-06-04T22:26:45.300Z,99.90
2018-06-04T22:31:48.896Z,99.90
2018-06-04T22:41:55.525Z,99.90
2018-06-04T22:46:58.856Z,99.90
2018-06-04T22:52:02.239Z,99.90
2018-06-04T22:57:06.463Z,99.90
2018-06-04T23:02:09.894Z,99.90
2018-06-04T23:07:13.367Z,99.90
2018-06-04T23:12:16.739Z,99.90
2018-06-04T23:17:20.254Z,99.90
2018-06-04T23:22:23.603Z,99.90
2018-06-04T23:27:26.996Z,99.90
2018-06-04T23:32:30.656Z,99.90
2018-06-04T23:37:34.072Z,99.90
2018-06-04T23:42:38.275Z,99.90
2018-06-04T23:47:41.689Z,99.90
2018-06-04T23:52:45.146Z,99.90
2018-06-04T23:57:48.593Z,99.90
